Time;durP1;ratioP1;P1;durP2;ratioP2;P2;SDS_P1;SDS_P2;PMS_P1;PMS_P2;Temp;Humidity;BMP_temperature;BMP_pressure;BME280_temperature;BME280_humidity;BME280_pressure;Samples;Min_cycle;Max_cycle;Signal;HPM_P1;HPM_P2
2023/04/09 00:02:27;;;;;;;25.48;11.63;;;;;;;;;;5031452;28;20045;-72
2023/04/09 00:04:53;;;;;;;22.80;11.82;;;;;;;;;;5031622;28;20065;-71
2023/04/09 00:07:20;;;;;;;24.23;11.60;;;;;;;;;;5030883;28;20053;-72
2023/04/09 00:09:47;;;;;;;22.67;12.07;;;;;;;;;;5031323;28;20046;-71
2023/04/09 00:12:13;;;;;;;24.90;11.85;;;;;;;;;;5031374;28;20049;-72
2023/04/09 00:14:40;;;;;;;25.75;12.07;;;;;;;;;;5031025;28;20048;-72
2023/04/09 00:17:06;;;;;;;22.83;11.40;;;;;;;;;;5031034;28;20067;-71
2023/04/09 00:19:34;;;;;;;25.30;12.77;;;;;;;;;;5030984;28;20132;-71
2023/04/09 00:22:01;;;;;;;25.77;13.43;;;;;;;;;;5031291;28;20546;-70
2023/04/09 00:24:27;;;;;;;23.65;12.55;;;;;;;;;;5030702;28;20458;-72
2023/04/09 00:26:54;;;;;;;23.70;11.82;;;;;;;;;;5030849;28;20662;-72
2023/04/09 00:29:21;;;;;;;21.67;11.80;;;;;;;;;;5030615;28;20068;-72
2023/04/09 00:31:47;;;;;;;23.95;12.88;;;;;;;;;;5030629;28;20092;-72
2023/04/09 00:34:14;;;;;;;24.70;11.48;;;;;;;;;;5030662;28;20067;-72
2023/04/09 00:36:42;;;;;;;23.42;11.68;;;;;;;;;;5030472;28;20049;-72
2023/04/09 00:39:08;;;;;;;26.35;11.73;;;;;;;;;;5030333;28;20392;-72
2023/04/09 00:41:35;;;;;;;25.75;12.10;;;;;;;;;;5030747;28;20052;-72
2023/04/09 00:44:01;;;;;;;26.45;12.13;;;;;;;;;;5030207;28;20065;-71
2023/04/09 00:46:28;;;;;;;23.88;12.15;;;;;;;;;;5030530;28;20103;-71
2023/04/09 00:48:55;;;;;;;25.58;12.45;;;;;;;;;;5030101;28;20491;-71
2023/04/09 00:51:21;;;;;;;23.67;11.50;;;;;;;;;;5030883;28;20292;-72
2023/04/09 00:53:50;;;;;;;27.02;12.57;;;;;;;;;;5030407;28;20056;-71
2023/04/09 00:56:18;;;;;;;25.38;12.98;;;;;;;;;;5030330;28;20060;-71
2023/04/09 00:58:45;;;;;;;26.88;13.13;;;;;;;;;;5029494;28;20051;-71
2023/04/09 01:01:11;;;;;;;26.17;12.63;;;;;;;;;;5030370;28;20128;-72
2023/04/09 01:03:38;;;;;;;24.98;12.20;;;;;;;;;;5030445;28;20517;-70
2023/04/09 01:06:10;;;;;;;27.13;12.77;;;;;;;;;;5030376;28;20054;-72
2023/04/09 01:08:47;;;;;;;22.88;12.13;;;;;;;;;;5030409;28;20083;-71
2023/04/09 01:11:24;;;;;;;25.20;13.32;;;;;;;;;;5030554;28;20045;-71
2023/04/09 01:14:04;;;;;;;26.40;12.00;;;;;;;;;;5030465;28;20107;-69
2023/04/09 01:16:34;;;;;;;27.58;14.10;;;;;;;;;;5030669;28;20060;-70
2023/04/09 01:19:05;;;;;;;27.05;12.23;;;;;;;;;;5030247;28;20045;-71
2023/04/09 01:21:34;;;;;;;27.88;12.00;;;;;;;;;;5029976;28;20076;-72
2023/04/09 01:24:18;;;;;;;24.10;11.70;;;;;;;;;;5030340;28;20322;-71
2023/04/09 01:26:57;;;;;;;21.75;11.05;;;;;;;;;;5030080;28;20046;-70
2023/04/09 01:29:26;;;;;;;26.05;12.07;;;;;;;;;;5029957;28;20041;-72
2023/04/09 01:31:54;;;;;;;21.77;11.02;;;;;;;;;;5029857;28;20052;-71
2023/04/09 01:34:21;;;;;;;21.45;10.45;;;;;;;;;;5029765;28;20153;-71
2023/04/09 01:36:51;;;;;;;21.17;11.50;;;;;;;;;;5029773;28;20050;-72
2023/04/09 01:39:18;;;;;;;22.30;10.88;;;;;;;;;;5029944;28;20054;-71
2023/04/09 01:41:46;;;;;;;22.63;11.73;;;;;;;;;;5029593;28;20046;-72
2023/04/09 01:44:14;;;;;;;20.75;10.80;;;;;;;;;;5029660;28;20041;-72
2023/04/09 01:46:42;;;;;;;17.48;9.63;;;;;;;;;;5029565;28;20418;-71
2023/04/09 01:49:10;;;;;;;18.55;10.68;;;;;;;;;;5029726;28;20054;-71
2023/04/09 01:51:38;;;;;;;19.63;10.57;;;;;;;;;;5029670;28;20045;-72
2023/04/09 01:54:05;;;;;;;18.02;10.05;;;;;;;;;;5029712;28;20049;-72
2023/04/09 01:56:40;;;;;;;21.17;11.15;;;;;;;;;;5029570;28;20283;-72
2023/04/09 01:59:06;;;;;;;20.13;10.35;;;;;;;;;;5029362;28;20141;-72
2023/04/09 02:01:37;;;;;;;16.25;10.15;;;;;;;;;;5029324;28;20049;-72
2023/04/09 02:04:14;;;;;;;20.58;11.05;;;;;;;;;;5029693;28;20141;-72
2023/04/09 02:06:55;;;;;;;16.83;10.60;;;;;;;;;;5029644;28;20419;-73
2023/04/09 02:09:23;;;;;;;18.17;9.85;;;;;;;;;;5029681;28;20045;-73
2023/04/09 02:11:50;;;;;;;23.80;12.65;;;;;;;;;;5029353;28;20064;-72
2023/04/09 02:14:19;;;;;;;21.98;11.25;;;;;;;;;;5032982;28;20050;-71
2023/04/09 02:16:46;;;;;;;18.17;10.32;;;;;;;;;;5033349;28;20513;-71
2023/04/09 02:19:14;;;;;;;20.63;11.30;;;;;;;;;;5033434;28;20046;-70
2023/04/09 02:21:41;;;;;;;16.35;10.40;;;;;;;;;;5033163;28;20054;-70
2023/04/09 02:24:07;;;;;;;21.33;11.35;;;;;;;;;;5032894;28;20052;-70
2023/04/09 02:26:34;;;;;;;22.42;10.23;;;;;;;;;;5032963;28;20042;-70
2023/04/09 02:29:00;;;;;;;21.67;11.27;;;;;;;;;;5032724;28;20051;-68
2023/04/09 02:31:27;;;;;;;22.52;10.93;;;;;;;;;;5032909;28;20048;-70
2023/04/09 02:33:55;;;;;;;21.85;12.07;;;;;;;;;;5033015;28;20045;-70
2023/04/09 02:36:23;;;;;;;21.98;11.80;;;;;;;;;;5033231;28;20491;-71
2023/04/09 02:38:49;;;;;;;23.95;12.18;;;;;;;;;;5032151;28;20049;-73
2023/04/09 02:41:16;;;;;;;21.75;11.55;;;;;;;;;;5033253;28;20150;-71
2023/04/09 02:43:42;;;;;;;23.92;12.10;;;;;;;;;;5032646;28;20494;-70
2023/04/09 02:46:09;;;;;;;20.63;10.88;;;;;;;;;;5033002;28;20483;-70
2023/04/09 02:48:35;;;;;;;23.20;11.73;;;;;;;;;;5032222;28;20053;-73
2023/04/09 02:51:05;;;;;;;21.95;11.50;;;;;;;;;;5032802;28;20056;-69
2023/04/09 02:53:33;;;;;;;20.77;11.07;;;;;;;;;;5032223;28;20095;-70
2023/04/09 02:55:59;;;;;;;20.88;11.90;;;;;;;;;;5032951;28;20052;-71
2023/04/09 02:58:26;;;;;;;18.35;10.27;;;;;;;;;;5032256;28;20045;-72
2023/04/09 03:00:52;;;;;;;22.70;11.85;;;;;;;;;;5032821;28;20048;-73
2023/04/09 03:03:19;;;;;;;20.60;10.43;;;;;;;;;;5032784;28;20048;-73
2023/04/09 03:05:45;;;;;;;20.98;12.07;;;;;;;;;;5032469;28;20052;-73
2023/04/09 03:08:12;;;;;;;19.02;10.80;;;;;;;;;;5031953;28;20049;-72
2023/04/09 03:10:40;;;;;;;20.42;11.35;;;;;;;;;;5032633;28;20045;-71
2023/04/09 03:13:06;;;;;;;18.10;10.93;;;;;;;;;;5032353;28;20041;-72
2023/04/09 03:15:33;;;;;;;17.55;10.90;;;;;;;;;;5032412;28;20052;-72
2023/04/09 03:17:59;;;;;;;19.05;11.15;;;;;;;;;;5031888;28;20140;-73
2023/04/09 03:20:26;;;;;;;20.50;11.55;;;;;;;;;;5032077;28;20057;-72
2023/04/09 03:22:53;;;;;;;18.65;10.55;;;;;;;;;;5032609;28;20617;-72
2023/04/09 03:25:20;;;;;;;21.25;11.82;;;;;;;;;;5032367;28;20407;-72
2023/04/09 03:27:48;;;;;;;18.20;10.90;;;;;;;;;;5032047;28;20450;-71
2023/04/09 03:30:14;;;;;;;22.23;12.25;;;;;;;;;;5031858;28;20495;-70
2023/04/09 03:32:41;;;;;;;19.20;10.48;;;;;;;;;;5032039;28;20056;-72
2023/04/09 03:35:08;;;;;;;25.38;12.63;;;;;;;;;;5031255;28;20046;-72
2023/04/09 03:37:35;;;;;;;21.58;11.68;;;;;;;;;;5031692;28;20127;-71
2023/04/09 03:40:02;;;;;;;19.83;10.88;;;;;;;;;;5031643;28;20385;-72
2023/04/09 03:42:29;;;;;;;21.08;11.05;;;;;;;;;;5032224;28;20053;-71
2023/04/09 03:44:57;;;;;;;19.35;11.27;;;;;;;;;;5031447;28;20041;-72
2023/04/09 03:47:23;;;;;;;17.67;10.90;;;;;;;;;;5031545;28;20558;-72
2023/04/09 03:49:50;;;;;;;20.40;10.50;;;;;;;;;;5031185;28;20052;-71
2023/04/09 03:52:17;;;;;;;20.08;10.85;;;;;;;;;;5031673;28;20049;-73
2023/04/09 03:54:43;;;;;;;22.85;12.15;;;;;;;;;;5031298;28;20514;-71
2023/04/09 03:57:10;;;;;;;24.05;12.15;;;;;;;;;;5031713;28;20430;-72
2023/04/09 03:59:36;;;;;;;20.73;11.60;;;;;;;;;;5031338;28;20046;-73
2023/04/09 04:02:04;;;;;;;19.40;11.07;;;;;;;;;;5031600;28;20041;-73
2023/04/09 04:04:31;;;;;;;20.25;11.07;;;;;;;;;;5031217;28;20045;-73
2023/04/09 04:06:57;;;;;;;17.30;10.35;;;;;;;;;;5031170;28;20042;-71
2023/04/09 04:09:24;;;;;;;19.58;10.60;;;;;;;;;;5031191;28;20063;-71
2023/04/09 04:11:50;;;;;;;21.52;11.75;;;;;;;;;;5031424;28;20513;-72
2023/04/09 04:14:17;;;;;;;17.33;11.07;;;;;;;;;;5031181;28;20046;-73
2023/04/09 04:16:43;;;;;;;19.73;11.13;;;;;;;;;;5030597;28;20427;-71
2023/04/09 04:19:11;;;;;;;21.15;11.70;;;;;;;;;;5031403;28;20053;-73
2023/04/09 04:21:38;;;;;;;18.85;10.80;;;;;;;;;;5030966;28;20045;-72
2023/04/09 04:24:05;;;;;;;20.38;11.05;;;;;;;;;;5031086;28;20048;-73
2023/04/09 04:26:32;;;;;;;19.17;10.85;;;;;;;;;;5031006;28;20056;-73
2023/04/09 04:28:58;;;;;;;21.98;12.00;;;;;;;;;;5030759;28;20050;-73
2023/04/09 04:31:25;;;;;;;20.23;11.38;;;;;;;;;;5030781;28;20050;-72
2023/04/09 04:33:52;;;;;;;20.52;11.85;;;;;;;;;;5031162;28;20244;-71
2023/04/09 04:36:20;;;;;;;22.67;11.60;;;;;;;;;;5042610;22;20041;-64
2023/04/09 04:38:46;;;;;;;24.27;11.85;;;;;;;;;;5031094;28;20056;-64
2023/04/09 04:41:13;;;;;;;20.25;11.07;;;;;;;;;;5030945;28;20483;-65
2023/04/09 04:43:41;;;;;;;20.55;10.93;;;;;;;;;;5030823;28;20041;-65
2023/04/09 04:46:07;;;;;;;19.80;11.48;;;;;;;;;;5030578;28;20061;-65
2023/04/09 04:48:34;;;;;;;19.45;11.30;;;;;;;;;;5030885;28;20060;-65
2023/04/09 04:51:01;;;;;;;20.83;10.80;;;;;;;;;;5030409;28;20056;-65
2023/04/09 04:53:29;;;;;;;19.13;10.65;;;;;;;;;;5030785;28;20045;-64
2023/04/09 04:55:56;;;;;;;22.70;12.40;;;;;;;;;;5030583;28;20041;-64
2023/04/09 04:58:22;;;;;;;21.65;11.73;;;;;;;;;;5030243;28;20049;-64
2023/04/09 05:00:49;;;;;;;22.17;12.63;;;;;;;;;;5030750;28;20056;-65
2023/04/09 05:03:15;;;;;;;20.55;10.38;;;;;;;;;;5030644;28;20052;-64
2023/04/09 05:05:42;;;;;;;20.30;11.20;;;;;;;;;;5030592;28;20045;-65
2023/04/09 05:08:09;;;;;;;20.33;11.48;;;;;;;;;;5030426;28;20046;-65
2023/04/09 05:10:37;;;;;;;19.95;12.05;;;;;;;;;;5030450;28;20048;-64
2023/04/09 05:13:03;;;;;;;19.90;11.23;;;;;;;;;;5030054;28;20049;-64
2023/04/09 05:15:30;;;;;;;22.33;11.60;;;;;;;;;;5030509;28;20045;-64
2023/04/09 05:17:58;;;;;;;18.42;10.95;;;;;;;;;;5030015;28;20042;-65
2023/04/09 05:20:27;;;;;;;19.52;11.40;;;;;;;;;;5030164;28;20139;-65
2023/04/09 05:22:53;;;;;;;17.42;10.60;;;;;;;;;;5029969;28;20046;-65
2023/04/09 05:25:20;;;;;;;19.25;10.15;;;;;;;;;;5030520;28;20042;-65
2023/04/09 05:27:48;;;;;;;18.60;10.43;;;;;;;;;;5029774;28;20049;-65
2023/04/09 05:30:15;;;;;;;20.50;11.60;;;;;;;;;;5030348;28;20446;-65
2023/04/09 05:32:41;;;;;;;19.70;11.38;;;;;;;;;;5030229;28;20091;-64
2023/04/09 05:35:08;;;;;;;17.40;10.30;;;;;;;;;;5030043;28;20049;-64
2023/04/09 05:37:35;;;;;;;19.83;10.88;;;;;;;;;;5029930;28;20060;-65
2023/04/09 05:40:02;;;;;;;20.55;11.57;;;;;;;;;;5030066;28;20045;-67
2023/04/09 05:42:28;;;;;;;17.58;10.50;;;;;;;;;;5030113;28;20104;-65
2023/04/09 05:44:56;;;;;;;17.60;10.68;;;;;;;;;;5029941;28;20048;-65
2023/04/09 05:47:23;;;;;;;19.98;10.70;;;;;;;;;;5030310;28;20050;-64
2023/04/09 05:49:49;;;;;;;17.58;10.05;;;;;;;;;;5033873;28;20057;-65
2023/04/09 05:52:16;;;;;;;16.20;10.35;;;;;;;;;;5034045;28;20056;-64
2023/04/09 05:54:43;;;;;;;18.95;10.60;;;;;;;;;;5033454;28;20056;-65
2023/04/09 05:57:09;;;;;;;21.25;11.05;;;;;;;;;;5034025;28;20053;-65
2023/04/09 05:59:36;;;;;;;18.70;10.63;;;;;;;;;;5033585;28;20045;-65
2023/04/09 06:02:04;;;;;;;20.38;11.07;;;;;;;;;;5034049;28;20367;-65
2023/04/09 06:04:30;;;;;;;18.70;11.70;;;;;;;;;;5033525;28;20045;-65
2023/04/09 06:06:59;;;;;;;19.45;10.65;;;;;;;;;;5033906;28;20045;-65
2023/04/09 06:09:25;;;;;;;19.50;11.23;;;;;;;;;;5033693;28;20060;-65
2023/04/09 06:11:52;;;;;;;19.00;10.50;;;;;;;;;;5033929;28;20422;-65
2023/04/09 06:14:18;;;;;;;19.25;10.82;;;;;;;;;;5033452;28;20050;-66
2023/04/09 06:16:45;;;;;;;17.35;10.63;;;;;;;;;;5033565;28;20628;-65
2023/04/09 06:19:15;;;;;;;20.67;12.00;;;;;;;;;;5033202;28;20073;-65
2023/04/09 06:21:42;;;;;;;19.52;11.50;;;;;;;;;;5033411;28;20049;-66
2023/04/09 06:24:09;;;;;;;19.35;11.20;;;;;;;;;;5033260;28;20047;-65
2023/04/09 06:26:35;;;;;;;18.85;11.73;;;;;;;;;;5033914;28;20053;-66
2023/04/09 06:29:02;;;;;;;18.67;11.55;;;;;;;;;;5032902;28;20422;-64
2023/04/09 06:31:28;;;;;;;19.70;11.80;;;;;;;;;;5033390;28;20056;-65
2023/04/09 06:33:55;;;;;;;16.85;11.45;;;;;;;;;;5033053;28;20155;-66
2023/04/09 06:36:23;;;;;;;15.88;11.30;;;;;;;;;;5032918;28;20126;-66
2023/04/09 06:38:49;;;;;;;17.00;10.05;;;;;;;;;;5033329;28;20487;-66
2023/04/09 06:41:16;;;;;;;20.10;12.43;;;;;;;;;;5033076;28;20041;-65
2023/04/09 06:43:42;;;;;;;19.67;11.73;;;;;;;;;;5033570;28;20048;-66
2023/04/09 06:46:09;;;;;;;18.67;11.38;;;;;;;;;;5033001;28;20049;-67
2023/04/09 06:48:36;;;;;;;17.65;11.13;;;;;;;;;;5033016;28;20461;-65
2023/04/09 06:51:03;;;;;;;19.25;11.00;;;;;;;;;;5032478;28;20045;-66
2023/04/09 06:53:31;;;;;;;21.17;11.50;;;;;;;;;;5032821;28;20483;-65
2023/04/09 06:55:58;;;;;;;16.55;10.90;;;;;;;;;;5032653;28;20045;-65
2023/04/09 06:58:24;;;;;;;18.35;11.63;;;;;;;;;;5032128;28;20506;-65
2023/04/09 07:00:51;;;;;;;16.65;10.95;;;;;;;;;;5032429;28;20107;-65
2023/04/09 07:03:18;;;;;;;19.45;11.88;;;;;;;;;;5032622;28;20047;-65
2023/04/09 07:05:44;;;;;;;17.15;11.13;;;;;;;;;;5032559;28;20100;-64
2023/04/09 07:08:11;;;;;;;16.98;10.80;;;;;;;;;;5032850;28;20045;-63
2023/04/09 07:10:39;;;;;;;21.02;11.65;;;;;;;;;;5032368;28;20400;-65
2023/04/09 07:13:06;;;;;;;19.48;11.23;;;;;;;;;;5032523;28;20095;-65
2023/04/09 07:15:33;;;;;;;18.90;11.52;;;;;;;;;;5032100;28;20077;-63
2023/04/09 07:17:59;;;;;;;21.33;11.50;;;;;;;;;;5032198;28;20060;-65
2023/04/09 07:20:26;;;;;;;19.60;10.65;;;;;;;;;;5032035;28;20045;-65
2023/04/09 07:22:52;;;;;;;18.38;10.20;;;;;;;;;;5032498;28;20049;-64
2023/04/09 07:25:20;;;;;;;18.92;9.73;;;;;;;;;;5032172;28;20046;-63
2023/04/09 07:27:48;;;;;;;16.75;9.85;;;;;;;;;;5032087;28;20053;-65
2023/04/09 07:30:15;;;;;;;16.05;9.63;;;;;;;;;;5032156;28;20533;-65
2023/04/09 07:32:41;;;;;;;16.30;9.05;;;;;;;;;;5031779;28;20088;-65
2023/04/09 07:35:10;;;;;;;14.30;8.55;;;;;;;;;;5032472;28;20045;-64
2023/04/09 07:37:37;;;;;;;13.90;8.73;;;;;;;;;;5032275;28;20060;-65
2023/04/09 07:40:04;;;;;;;17.15;9.98;;;;;;;;;;5032637;28;20343;-65
2023/04/09 07:42:32;;;;;;;16.15;8.85;;;;;;;;;;5032389;28;20045;-65
2023/04/09 07:45:02;;;;;;;14.50;8.73;;;;;;;;;;5032232;28;20487;-66
2023/04/09 07:47:28;;;;;;;14.20;8.40;;;;;;;;;;5032723;28;20050;-66
2023/04/09 07:49:55;;;;;;;21.20;11.45;;;;;;;;;;5032379;28;20080;-66
2023/04/09 07:52:22;;;;;;;15.65;11.07;;;;;;;;;;5032751;28;20762;-65
2023/04/09 07:54:48;;;;;;;14.88;8.07;;;;;;;;;;5032289;28;20053;-65
2023/04/09 07:57:15;;;;;;;13.20;7.15;;;;;;;;;;5031488;28;20538;-65
2023/04/09 07:59:41;;;;;;;12.23;7.20;;;;;;;;;;5031797;28;20049;-66
2023/04/09 08:02:10;;;;;;;11.88;7.20;;;;;;;;;;5031800;28;20472;-65
2023/04/09 08:04:37;;;;;;;12.70;7.20;;;;;;;;;;5031716;28;20049;-66
2023/04/09 08:07:04;;;;;;;13.20;7.80;;;;;;;;;;5031479;28;20471;-66
2023/04/09 08:09:30;;;;;;;12.43;8.00;;;;;;;;;;5032010;28;20531;-65
2023/04/09 08:11:57;;;;;;;13.13;7.13;;;;;;;;;;5030742;28;20045;-66
2023/04/09 08:14:24;;;;;;;11.48;6.70;;;;;;;;;;5031534;28;20050;-65
2023/04/09 08:16:51;;;;;;;11.10;6.78;;;;;;;;;;5031600;28;20141;-65
2023/04/09 08:19:19;;;;;;;9.23;5.97;;;;;;;;;;5031328;28;20045;-66
2023/04/09 08:21:47;;;;;;;10.73;6.80;;;;;;;;;;5031838;28;20529;-66
2023/04/09 08:24:14;;;;;;;10.30;6.32;;;;;;;;;;5031085;28;20049;-65
2023/04/09 08:26:42;;;;;;;9.13;6.15;;;;;;;;;;5031810;28;20045;-65
2023/04/09 08:29:11;;;;;;;10.30;6.50;;;;;;;;;;5031165;28;20490;-65
2023/04/09 08:31:37;;;;;;;10.48;6.78;;;;;;;;;;5031319;28;20491;-65
2023/04/09 08:34:04;;;;;;;8.95;5.75;;;;;;;;;;5030939;28;20053;-65
2023/04/09 08:36:34;;;;;;;8.77;5.80;;;;;;;;;;5031295;28;20498;-65
2023/04/09 08:39:00;;;;;;;9.80;6.32;;;;;;;;;;5031111;28;20049;-65
2023/04/09 08:41:28;;;;;;;11.63;6.25;;;;;;;;;;5031488;28;20055;-65
2023/04/09 08:43:56;;;;;;;9.00;6.30;;;;;;;;;;5030784;28;20053;-65
2023/04/09 08:46:23;;;;;;;9.82;5.78;;;;;;;;;;5030857;28;20593;-65
2023/04/09 08:48:51;;;;;;;9.90;6.07;;;;;;;;;;5030735;28;20052;-65
2023/04/09 08:51:19;;;;;;;9.00;5.75;;;;;;;;;;5031186;28;20073;-64
2023/04/09 08:53:51;;;;;;;8.75;5.70;;;;;;;;;;5030576;28;20049;-65
2023/04/09 08:56:19;;;;;;;8.13;5.87;;;;;;;;;;5031479;28;20049;-64
2023/04/09 08:58:47;;;;;;;8.93;5.75;;;;;;;;;;5030661;28;20128;-65
2023/04/09 09:01:24;;;;;;;8.93;5.60;;;;;;;;;;5030771;28;20411;-65
2023/04/09 09:03:56;;;;;;;9.48;5.95;;;;;;;;;;5030530;28;20049;-65
2023/04/09 09:06:23;;;;;;;9.23;5.80;;;;;;;;;;5030689;28;20056;-65
2023/04/09 09:09:03;;;;;;;9.70;6.07;;;;;;;;;;5030481;28;20140;-65
2023/04/09 09:11:30;;;;;;;9.10;6.40;;;;;;;;;;5030696;28;20056;-66
2023/04/09 09:14:05;;;;;;;9.07;5.45;;;;;;;;;;5030520;28;20046;-65
2023/04/09 09:16:33;;;;;;;7.95;5.57;;;;;;;;;;5030395;28;20052;-65
2023/04/09 09:19:00;;;;;;;9.43;5.82;;;;;;;;;;5030508;28;20609;-64
2023/04/09 09:21:28;;;;;;;8.57;5.93;;;;;;;;;;5029896;28;20060;-66
2023/04/09 09:23:55;;;;;;;9.30;6.15;;;;;;;;;;5030588;28;20415;-65
2023/04/09 09:26:25;;;;;;;9.70;5.53;;;;;;;;;;5029878;28;20051;-68
2023/04/09 09:29:07;;;;;;;9.45;6.20;;;;;;;;;;5030297;28;20045;-65
2023/04/09 09:31:46;;;;;;;9.65;6.10;;;;;;;;;;5030275;28;20053;-66
2023/04/09 09:34:12;;;;;;;8.27;5.22;;;;;;;;;;5030494;28;20073;-66
2023/04/09 09:36:39;;;;;;;7.45;5.15;;;;;;;;;;5029687;28;20052;-66
2023/04/09 09:39:08;;;;;;;8.93;5.13;;;;;;;;;;5030240;28;20041;-64
2023/04/09 09:41:37;;;;;;;7.63;4.68;;;;;;;;;;5030116;28;20577;-65
2023/04/09 09:44:05;;;;;;;6.90;4.60;;;;;;;;;;5030726;28;20399;-66
2023/04/09 09:46:34;;;;;;;9.68;5.97;;;;;;;;;;5030276;28;20053;-65
2023/04/09 09:49:01;;;;;;;7.13;4.65;;;;;;;;;;5030177;28;20045;-66
2023/04/09 09:51:28;;;;;;;8.35;5.10;;;;;;;;;;5029970;28;20057;-66
2023/04/09 09:53:56;;;;;;;6.30;4.43;;;;;;;;;;5030544;28;20056;-66
2023/04/09 09:56:31;;;;;;;8.85;5.88;;;;;;;;;;5029699;28;20042;-66
2023/04/09 09:59:06;;;;;;;8.18;5.40;;;;;;;;;;5030391;28;20052;-65
2023/04/09 10:01:33;;;;;;;7.22;4.82;;;;;;;;;;5030319;28;20472;-66
2023/04/09 10:04:00;;;;;;;6.82;4.75;;;;;;;;;;5030583;28;20505;-65
2023/04/09 10:06:27;;;;;;;8.65;4.90;;;;;;;;;;5029842;28;20054;-66
2023/04/09 10:08:57;;;;;;;8.07;5.43;;;;;;;;;;5029956;28;20148;-64
2023/04/09 10:11:25;;;;;;;7.53;4.90;;;;;;;;;;5029735;28;20150;-65
2023/04/09 10:13:56;;;;;;;7.18;4.80;;;;;;;;;;5030074;28;20127;-65
2023/04/09 10:16:25;;;;;;;7.10;5.15;;;;;;;;;;5029859;28;20045;-65
2023/04/09 10:18:52;;;;;;;6.78;4.75;;;;;;;;;;5030011;28;20052;-65
2023/04/09 10:21:27;;;;;;;7.57;4.82;;;;;;;;;;5029480;28;20059;-65
2023/04/09 10:23:54;;;;;;;7.45;4.85;;;;;;;;;;5030289;28;20041;-65
2023/04/09 10:26:21;;;;;;;6.65;4.75;;;;;;;;;;5029715;28;20416;-64
2023/04/09 10:29:02;;;;;;;6.90;4.78;;;;;;;;;;5030353;28;20046;-65
2023/04/09 10:31:45;;;;;;;6.93;4.82;;;;;;;;;;5029849;28;20053;-65
2023/04/09 10:34:14;;;;;;;;;;;;;;;;;;5032190;28;20057;-65
2023/04/09 10:36:43;;;;;;;7.60;4.75;;;;;;;;;;5045385;22;20205;-68
2023/04/09 10:39:12;;;;;;;6.72;4.68;;;;;;;;;;5033100;28;20049;-68
2023/04/09 10:41:40;;;;;;;6.85;4.85;;;;;;;;;;5032699;28;20059;-69
2023/04/09 10:44:07;;;;;;;7.90;5.00;;;;;;;;;;5032946;28;20041;-68
2023/04/09 10:46:36;;;;;;;7.50;5.07;;;;;;;;;;5032686;28;20049;-68
2023/04/09 10:49:15;;;;;;;7.57;5.18;;;;;;;;;;5032645;28;20056;-68
2023/04/09 10:51:47;;;;;;;6.65;4.75;;;;;;;;;;5032833;28;20049;-69
2023/04/09 10:54:44;;;;;;;7.38;5.00;;;;;;;;;;5032728;28;20060;-68
2023/04/09 10:57:15;;;;;;;6.22;4.85;;;;;;;;;;5032441;28;20056;-68
2023/04/09 10:59:43;;;;;;;6.47;4.72;;;;;;;;;;5032794;28;20558;-69
2023/04/09 11:02:41;;;;;;;7.70;4.80;;;;;;;;;;5032469;28;20049;-68
2023/04/09 11:05:19;;;;;;;6.95;4.82;;;;;;;;;;5029056;28;20045;-68
2023/04/09 11:07:51;;;;;;;8.35;4.93;;;;;;;;;;5032677;28;20045;-68
2023/04/09 11:10:19;;;;;;;6.78;4.45;;;;;;;;;;5032878;28;20507;-68
2023/04/09 11:12:47;;;;;;;7.15;4.63;;;;;;;;;;5032076;28;20056;-68
2023/04/09 11:15:17;;;;;;;6.85;4.40;;;;;;;;;;5032202;28;20052;-68
2023/04/09 11:17:45;;;;;;;6.32;4.70;;;;;;;;;;5031820;28;20061;-68
2023/04/09 11:20:13;;;;;;;7.50;4.50;;;;;;;;;;5032136;28;20049;-69
2023/04/09 11:22:40;;;;;;;5.40;3.88;;;;;;;;;;5032332;28;20083;-69
2023/04/09 11:25:07;;;;;;;5.07;3.97;;;;;;;;;;5032117;28;20055;-68
2023/04/09 11:27:37;;;;;;;5.97;4.18;;;;;;;;;;5031935;28;20057;-68
2023/04/09 11:30:05;;;;;;;6.75;4.60;;;;;;;;;;5032111;28;20111;-67
2023/04/09 11:32:32;;;;;;;6.18;4.20;;;;;;;;;;5032088;28;20111;-68
2023/04/09 11:35:00;;;;;;;6.75;4.57;;;;;;;;;;5031713;28;20052;-68
2023/04/09 11:37:26;;;;;;;6.63;3.90;;;;;;;;;;5031833;28;20407;-68
2023/04/09 11:39:54;;;;;;;5.78;4.07;;;;;;;;;;5031468;28;20046;-68
2023/04/09 11:42:21;;;;;;;5.25;4.03;;;;;;;;;;5031923;28;20048;-68
2023/04/09 11:44:49;;;;;;;6.32;4.43;;;;;;;;;;5031164;28;20049;-68
2023/04/09 11:47:16;;;;;;;5.00;3.85;;;;;;;;;;5031649;28;20048;-68
2023/04/09 11:49:45;;;;;;;4.68;3.63;;;;;;;;;;5031367;28;20098;-68
2023/04/09 11:52:15;;;;;;;5.20;3.97;;;;;;;;;;5031818;28;20116;-69
2023/04/09 11:54:42;;;;;;;4.47;3.45;;;;;;;;;;5031058;28;20133;-68
2023/04/09 11:57:08;;;;;;;5.15;3.70;;;;;;;;;;5031069;28;20041;-68
2023/04/09 11:59:38;;;;;;;3.90;3.17;;;;;;;;;;5031079;28;20059;-67
2023/04/09 12:02:06;;;;;;;4.90;3.83;;;;;;;;;;5031567;28;20049;-68
2023/04/09 12:04:33;;;;;;;4.45;3.42;;;;;;;;;;5031266;28;20103;-68
2023/04/09 12:06:59;;;;;;;5.68;3.85;;;;;;;;;;5031382;28;20042;-68
2023/04/09 12:09:28;;;;;;;5.07;3.65;;;;;;;;;;5031058;28;20484;-68
2023/04/09 12:11:55;;;;;;;5.38;3.90;;;;;;;;;;5031326;28;20055;-68
2023/04/09 12:14:21;;;;;;;4.07;3.13;;;;;;;;;;5031601;28;20533;-68
2023/04/09 12:16:51;;;;;;;4.85;3.30;;;;;;;;;;5031268;28;20048;-69
2023/04/09 12:19:19;;;;;;;4.55;3.30;;;;;;;;;;5031716;28;20337;-69
2023/04/09 12:21:47;;;;;;;4.40;3.42;;;;;;;;;;5030790;28;20128;-68
2023/04/09 12:24:14;;;;;;;4.35;3.47;;;;;;;;;;5030683;28;20132;-68
2023/04/09 12:26:42;;;;;;;4.95;3.47;;;;;;;;;;5030892;28;20132;-68
2023/04/09 12:29:09;;;;;;;3.70;3.05;;;;;;;;;;5030994;28;20486;-67
2023/04/09 12:31:36;;;;;;;3.95;3.33;;;;;;;;;;5031020;28;20475;-68
2023/04/09 12:34:02;;;;;;;5.00;2.95;;;;;;;;;;5030733;28;20045;-69
2023/04/09 12:36:29;;;;;;;4.97;3.80;;;;;;;;;;5030421;28;20049;-69
2023/04/09 12:38:55;;;;;;;4.13;3.30;;;;;;;;;;5030258;28;20052;-68
2023/04/09 12:41:22;;;;;;;4.95;3.40;;;;;;;;;;5030532;28;20052;-68
2023/04/09 12:43:51;;;;;;;4.22;3.30;;;;;;;;;;5030472;28;20061;-68
2023/04/09 12:46:18;;;;;;;4.10;3.17;;;;;;;;;;5030541;28;20116;-69
2023/04/09 12:48:45;;;;;;;4.00;3.30;;;;;;;;;;5030246;28;20063;-68
2023/04/09 12:51:11;;;;;;;4.70;3.20;;;;;;;;;;5030169;28;20076;-68
2023/04/09 12:53:38;;;;;;;4.07;3.13;;;;;;;;;;5030294;28;20387;-68
2023/04/09 12:56:05;;;;;;;4.43;3.28;;;;;;;;;;5030201;28;20406;-68
2023/04/09 12:58:32;;;;;;;4.35;3.13;;;;;;;;;;5030004;28;20045;-68
2023/04/09 13:01:00;;;;;;;4.60;3.10;;;;;;;;;;5030480;28;20053;-68
2023/04/09 13:03:27;;;;;;;4.63;3.15;;;;;;;;;;5030339;28;20049;-68
2023/04/09 13:05:54;;;;;;;4.10;3.05;;;;;;;;;;5030293;28;20502;-68
2023/04/09 13:08:21;;;;;;;3.90;3.35;;;;;;;;;;5030089;28;20553;-69
2023/04/09 13:10:47;;;;;;;5.75;3.10;;;;;;;;;;5030255;28;20060;-69
2023/04/09 13:13:14;;;;;;;4.60;3.28;;;;;;;;;;5030679;28;20459;-68
2023/04/09 13:15:43;;;;;;;4.60;3.08;;;;;;;;;;5031176;28;20084;-67
2023/04/09 13:18:12;;;;;;;3.97;3.38;;;;;;;;;;5030987;28;20104;-68
2023/04/09 13:20:38;;;;;;;3.70;3.20;;;;;;;;;;5030980;28;20045;-68
2023/04/09 13:23:06;;;;;;;3.72;3.03;;;;;;;;;;5030903;28;20045;-68
2023/04/09 13:25:32;;;;;;;3.60;3.05;;;;;;;;;;5031298;28;20045;-68
2023/04/09 13:27:59;;;;;;;3.80;3.17;;;;;;;;;;5030704;28;20050;-69
2023/04/09 13:30:25;;;;;;;3.25;2.95;;;;;;;;;;5031199;28;20148;-68
2023/04/09 13:32:52;;;;;;;4.38;3.42;;;;;;;;;;5030290;28;20050;-67
2023/04/09 13:35:20;;;;;;;3.40;3.10;;;;;;;;;;5030833;28;20049;-68
2023/04/09 13:37:46;;;;;;;4.18;3.30;;;;;;;;;;5030159;28;20524;-68
2023/04/09 13:40:13;;;;;;;4.18;2.80;;;;;;;;;;5030906;28;20533;-67
2023/04/09 13:42:40;;;;;;;3.50;3.20;;;;;;;;;;5030651;28;20510;-68
2023/04/09 13:45:07;;;;;;;2.90;2.60;;;;;;;;;;5030980;28;20153;-68
2023/04/09 13:47:34;;;;;;;3.25;2.95;;;;;;;;;;5030133;28;20517;-68
2023/04/09 13:50:00;;;;;;;2.67;2.47;;;;;;;;;;5030480;28;20136;-68
2023/04/09 13:52:29;;;;;;;2.95;2.63;;;;;;;;;;5030514;28;20045;-69
2023/04/09 13:54:55;;;;;;;3.90;3.13;;;;;;;;;;5030764;28;20132;-68
2023/04/09 13:57:22;;;;;;;3.30;2.35;;;;;;;;;;5030471;28;20056;-67
2023/04/09 13:59:48;;;;;;;2.58;2.38;;;;;;;;;;5030870;28;20063;-67
2023/04/09 14:02:16;;;;;;;3.00;2.70;;;;;;;;;;5030662;28;20046;-68
2023/04/09 14:04:43;;;;;;;2.63;2.38;;;;;;;;;;5030550;28;20045;-68
2023/04/09 14:07:09;;;;;;;4.18;2.88;;;;;;;;;;5030165;28;20048;-68
2023/04/09 14:09:37;;;;;;;2.67;2.38;;;;;;;;;;5032380;28;20060;-68
2023/04/09 14:12:04;;;;;;;2.47;2.28;;;;;;;;;;5034232;28;20049;-68
2023/04/09 14:14:31;;;;;;;3.28;2.97;;;;;;;;;;5033664;28;20052;-69
2023/04/09 14:16:57;;;;;;;2.88;2.50;;;;;;;;;;5034109;28;20458;-69
2023/04/09 14:19:24;;;;;;;2.47;2.22;;;;;;;;;;5033893;28;20053;-68
2023/04/09 14:21:52;;;;;;;2.60;2.40;;;;;;;;;;5034432;28;20072;-67
2023/04/09 14:24:21;;;;;;;2.83;2.40;;;;;;;;;;5034529;28;20096;-68
2023/04/09 14:26:51;;;;;;;2.53;2.33;;;;;;;;;;5034291;28;20133;-67
2023/04/09 14:29:18;;;;;;;2.70;2.50;;;;;;;;;;5033740;28;20486;-67
2023/04/09 14:31:45;;;;;;;2.28;2.08;;;;;;;;;;5034136;28;20042;-68
2023/04/09 14:34:12;;;;;;;3.55;2.30;;;;;;;;;;5033778;28;20053;-68